Anza Borrego Desert Research Center, California Weather observations

Data are for 10 minute period ending at time listed.
 Day   Time   Solar   Ave.   Ave.  Ave.  Vector  Max.   Baro.   Total    
  of    of     Rad.   Air    Rel.  Wind   Wind   Wind  Press.  Precip.   
Year   Day            Temp.  Hum.  Speed  Dir.   Gust                    
2014   (PST)  Kw/m2    F      %     mph   deg.    mph    mb.     in.     
-------------------------------------------------------------------------
 327   11:40   0.47   74.3    14    7.4   121    14.0   501.9    0.00 
 327   11:50   0.51   74.7    11    8.6   157    13.9   501.9    0.00 
 327   12:00   0.52   74.4     9   10.2   121    14.7   501.9    0.00 
 327   12:10   0.58   74.9     8    9.2   123    13.5   501.9    0.00 
 327   12:20   0.53   75.3     9    9.1   155    14.8   501.9    0.00 
 327   12:30   0.48   75.6     8    6.3   170    11.1   501.9    0.00 
 327   12:40   0.54   75.5     7    7.8   173    13.9   501.9    0.00 
 327   12:50   0.56   76.3     7    6.6   135    11.0   502.0    0.00 
 327   13:00   0.57   75.5     7   11.5   119    16.7   502.0    0.00 
 327   13:10   0.55   75.4     7   10.4   120    15.2   502.0    0.00 
 327   13:20   0.53   75.1     7    8.9   105    14.0   502.0    0.00 
 327   13:30   0.51   75.1     7    7.6   126    13.2   502.0    0.00 
 327   13:40   0.49   75.5     6    6.7   120    12.0   502.0    0.00 
 327   13:50   0.46   75.3     6    8.2    74    12.0   502.0    0.00 
 327   14:00   0.44   75.6     6    5.8    63    11.2   502.0    0.00 
 327   14:10   0.41   75.7     6    7.7    59    12.9   502.0    0.00 
 327   14:20   0.39   75.3     6    5.3    47    12.0   502.0    0.00 
 327   14:30   0.36   76.8     6    2.5   189     5.8   502.0    0.00 
 327   14:40   0.33   76.5     6    6.2   145    11.8   502.0    0.00 
 327   14:50   0.31   74.2     7    9.8   125    15.4   502.0    0.00 
 327   15:00   0.26   74.2     7   11.1   142    19.0   502.0    0.00 
 327   15:10   0.18   72.7     8   15.9   159    23.4   501.9    0.00 
 327   15:20   0.17   72.4     8   15.9   158    25.1   501.8    0.00 
 327   15:30   0.16   71.9     8   14.5   154    20.1   501.8    0.00 
 327   15:40   0.10   71.4     9   14.6   161    20.5   501.8    0.00 
 327   15:50   0.05   70.8     9   11.8   160    18.0   501.8    0.00 
 327   16:00   0.04   69.9    10   11.9   177    17.0   501.8    0.00 
 327   16:10   0.04   69.3    10   11.0   188    16.7   501.8    0.00 
 327   16:20   0.03   69.0    11   11.7   200    16.4   501.8    0.00 
 327   16:30   0.01   68.8    11   10.5   204    16.0   501.8    0.00 
 327   16:40   0.00   68.4    11    9.8   204    14.0   501.8    0.00 
 327   16:50   0.00   68.2    11   10.2   196    14.0   501.8    0.00 
 327   17:00   0.00   67.9    11    9.5   204    15.7   501.8    0.00 
 327   17:10   0.00   67.1    12    9.0   209    15.3   501.8    0.00 
 327   17:20   0.00   67.0    12    8.1   218    12.1   501.8    0.00 
 327   17:30   0.00   66.3    12    7.6   222    10.7   501.8    0.00 
 327   17:40   0.00   65.6    12    7.8   230    11.6   501.8    0.00 
 327   17:50   0.00   65.8    12    8.4   238    11.9   501.8    0.00 
 327   18:00   0.00   64.9    13   10.2   240    12.9   501.8    0.00 
 327   18:10   0.00   64.5    13    9.3   238    12.5   501.8    0.00 
 327   18:20   0.00   64.2    13   10.2   240    12.6   501.8    0.00 
 327   18:30   0.00   64.4    13   10.8   238    14.0   501.8    0.00 
 327   18:40   0.00   64.2    13   10.9   238    13.8   501.8    0.00 
 327   18:50   0.00   64.0    13   11.5   235    14.2   501.8    0.00 
 327   19:00   0.00   63.8    13   11.5   234    13.5   501.8    0.00 
 327   19:10   0.00   64.1    13   11.9   235    14.9   501.8    0.00 
 327   19:20   0.00   63.7    13   10.3   231    14.0   501.8    0.00 
 327   19:30   0.00   63.2    13   10.2   234    12.4   501.8    0.00 
 327   19:40   0.00   63.1    13   10.6   234    13.9   501.8    0.00 
 327   19:50   0.00   63.1    13    9.5   231    11.7   501.8    0.00 
 327   20:00   0.00   62.7    13    8.4   238    10.4   501.8    0.00 
 327   20:10   0.00   62.4    13    8.0   234    10.7   501.8    0.00 
 327   20:20   0.00   61.3    13    2.8   270     5.8   501.8    0.00 
 327   20:30   0.00   61.8    14    2.9   358     4.5   501.7    0.00 
 327   20:40   0.00   60.9    15    0.6   292     1.8   501.7    0.00 
 327   20:50   0.00   58.0    16    4.0   195     6.1   501.7    0.00 
 327   21:00   0.00   57.0    16    5.4   222     7.9   501.7    0.00 
 327   21:10   0.00   56.7    16    6.6   245     8.2   501.7    0.00 
 327   21:20   0.00   56.4    17    6.8   250     8.4   501.7    0.00 
 327   21:30   0.00   57.5    16    7.3   252     9.1   501.6    0.00 
 327   21:40   0.00   60.8    14    4.0   258     7.0   501.6    0.00 
 327   21:50   0.00   58.8    14    2.5   270     4.5   501.6    0.00 
 327   22:00   0.00   57.5    16    1.2   326     3.1   501.7    0.00 
 327   22:10   0.00   55.6    17    2.4   274     4.2   501.6    0.00 
 327   22:20   0.00   56.1    16    3.5   225     4.7   501.6    0.00 
 327   22:30   0.00   55.4    16    4.3   239     6.1   501.6    0.00 
 327   22:40   0.00   56.0    16    5.3   251     7.0   501.6    0.00 
 327   22:50   0.00   56.3    15    5.6   249     6.6   501.6    0.00 
 327   23:00   0.00   57.2    15    5.2   254     6.9   501.6    0.00 
 327   23:10   0.00   58.6    14    3.6   254     5.3   501.6    0.00 
 327   23:20   0.00   58.9    13    2.5   251     4.2   501.6    0.00 
 327   23:30   0.00   56.1    16    2.2   318     4.2   501.6    0.00 
 327   23:40   0.00   53.7    17    1.8   324     2.9   501.6    0.00 
 327   23:50   0.00   54.1    17    1.5   315     2.8   501.6    0.00 
 328    0:00   0.00   53.3    17    0.6   264     2.6   501.6    0.00 
 328    0:10   0.00   54.4    17    1.7   237     3.7   501.6    0.00 
 328    0:20   0.00   53.4    17    4.4   231     5.3   501.6    0.00 
 328    0:30   0.00   51.7    18    4.6   253     5.6   501.6    0.00 
 328    0:40   0.00   54.2    16    3.8   228     6.1   501.6    0.00 
 328    0:50   0.00   52.5    17    4.8   216     5.8   501.6    0.00 
 328    1:00   0.00   53.2    15    2.7   194     4.9   501.6    0.00 
 328    1:10   0.00   56.2    14    3.1   236     6.0   501.6    0.00 
 328    1:20   0.00   53.4    15    3.6   238     6.6   501.6    0.00 
 328    1:30   0.00   54.0    15    2.1   254     3.2   501.6    0.00 
 328    1:40   0.00   51.8    17    2.4   276     3.7   501.6    0.00 
 328    1:50   0.00   51.6    17    1.8   295     2.6   501.6    0.00 
 328    2:00   0.00   52.6    16    3.3   262     4.7   501.6    0.00 
 328    2:10   0.00   52.2    16    4.1   252     5.7   501.6    0.00 
 328    2:20   0.00   51.8    16    4.1   244     5.2   501.6    0.00 
 328    2:30   0.00   52.4    16    4.9   246     7.4   501.6    0.00 
 328    2:40   0.00   53.7    14    5.0   252     7.3   501.6    0.00 
 328    2:50   0.00   54.0    16    2.3   356     4.7   501.6    0.00 
 328    3:00   0.00   52.8    17    1.5   311     2.3   501.6    0.00 
 328    3:10   0.00   53.4    17    1.2   296     2.8   501.6    0.00 
 328    3:20   0.00   51.4    18    2.6   222     4.5   501.6    0.00 
 328    3:30   0.00   49.9    19    4.2   225     4.6   501.6    0.00 
 328    3:40   0.00   49.5    19    2.4   226     3.7   501.6    0.00 
 328    3:50   0.00   50.6    18    3.1   192     4.6   501.6    0.00 
 328    4:00   0.00   52.1    16    2.3   204     4.5   501.6    0.00 
 328    4:10   0.00   51.0    17    1.0   254     3.7   501.6    0.00 
 328    4:20   0.00   51.4    17    2.3   291     3.7   501.6    0.00 
 328    4:30   0.00   49.7    18    3.6   256     4.6   501.6    0.00 
 328    4:40   0.00   48.5    19    3.6   251     4.8   501.6    0.00 
 328    4:50   0.00   50.4    17    2.1   252     3.5   501.6    0.00 
 328    5:00   0.00   51.6    17    1.8   336     3.6   501.6    0.00 
 328    5:10   0.00   51.0    17    1.8   282     4.0   501.6    0.00 
 328    5:20   0.00   52.1    17    1.6   324     2.6   501.6    0.00 
 328    5:30   0.00   50.0    18    1.0   285     3.3   501.6    0.00 
 328    5:40   0.00   47.8    20    1.6   281     2.7   501.6    0.00 
 328    5:50   0.00   49.6    19    2.1   232     3.2   501.6    0.00 
 328    6:00   0.00   45.9    21    2.9   222     4.0   501.6    0.00 
 328    6:10   0.00   47.0    20    4.1   234     5.0   501.6    0.00 
 328    6:20   0.00   47.9    19    5.0   242     6.7   501.6    0.00 
 328    6:30   0.00   49.3    18    6.6   243     8.3   501.6    0.00 
 328    6:40   0.01   51.7    16    5.2   242     7.7   501.6    0.00 
 328    6:50   0.03   55.6    14    5.8   248     7.5   501.6    0.00 
 328    7:00   0.05   54.2    16    3.7   307     5.9   501.6    0.00 
 328    7:10   0.08   55.2    16    1.6   341     3.6   501.6    0.00 
 328    7:20   0.10   57.6    15    0.9   190     2.6   501.6    0.00 
 328    7:30   0.14   58.1    15    0.7   204     1.9   501.6    0.00 
 328    7:40   0.17   59.3    14    2.1   244     3.4   501.6    0.00 
 328    7:50   0.20   60.3    14    1.9   284     2.3   501.6    0.00 
 328    8:00   0.23   62.8    12    0.5   292     1.5   501.7    0.00 
 328    8:10   0.26   66.1    11    0.6   234     1.2   501.7    0.00 
 328    8:20   0.29   66.4    11    0.7   340     1.6   501.7    0.00 
 328    8:30   0.32   66.1    11    1.4   338     2.5   501.8    0.00 
 328    8:40   0.35   65.0    11    2.0   310     2.9   501.8    0.00 
 328    8:50   0.37   66.3    11    1.1    44     2.6   501.8    0.00 
 328    9:00   0.39   67.2    10    1.0    67     2.9   501.8    0.00 
 328    9:10   0.35   66.9    11    1.5    56     3.1   501.8    0.00 
 328    9:20   0.37   66.3    11    1.3    74     2.4   501.8    0.00 
 328    9:30   0.45   66.9    11    1.3    93     2.6   501.8    0.00 
 328    9:40   0.51   68.4    11    1.0    64     1.9   501.8    0.00 
 328    9:50   0.51   68.7    10    1.3    49     2.6   501.8    0.00 
 328   10:00   0.46   68.8    10    2.0    96     4.5   501.8    0.00 
 328   10:10   0.52   68.5    12    2.1    90     4.0   501.8    0.00 
 328   10:20   0.57   69.1    11    2.6   113     4.7   501.8    0.00 
 328   10:30   0.58   69.0    11    4.3    93     6.4   501.8    0.00 
 328   10:40   0.59   69.1    10    4.9    90     7.1   501.8    0.00 
 328   10:50   0.59   69.4    10    4.8    97     8.0   501.8    0.00 
 328   11:00   0.62   69.9    10    3.7   108     6.9   501.8    0.00 
 328   11:10   0.61   70.4     9    5.3   104     9.6   501.8    0.00 
 328   11:20   0.57   70.3     9    4.8   117     7.7   501.8    0.00 
 328   11:30   0.63   70.4     9    4.9   114     9.4   501.8    0.00 

Return to Anza Borrego Desert Research Center graphs page.


Western Regional Climate Center,wrcc@dri.edu